createdAt,value
2022-08-17T00:01:00.697Z,69.66
2022-08-17T00:01:57.576Z,69.62
2022-08-17T00:03:04.528Z,69.55
2022-08-17T00:03:57.668Z,69.27
2022-08-17T00:04:56.972Z,69.37
2022-08-17T00:06:02.687Z,69.74
2022-08-17T00:06:57.459Z,70.27
2022-08-17T00:07:57.053Z,70.61
2022-08-17T00:08:59.940Z,70.87
2022-08-17T00:09:57.723Z,71.26
2022-08-17T00:10:57.747Z,71.47
2022-08-17T00:12:41.414Z,71.60
2022-08-17T00:12:57.003Z,71.64
2022-08-17T00:14:01.118Z,71.82
2022-08-17T00:14:56.954Z,72.17
2022-08-17T00:16:00.027Z,72.38
2022-08-17T00:16:57.791Z,72.63
2022-08-17T00:17:57.397Z,72.74
2022-08-17T00:19:06.904Z,72.90
2022-08-17T00:19:57.045Z,73.10
2022-08-17T00:22:31.531Z,73.59
2022-08-17T00:23:05.906Z,73.45
2022-08-17T00:23:56.983Z,73.27
2022-08-17T00:25:57.343Z,73.28
2022-08-17T00:26:57.015Z,73.22
2022-08-17T00:27:56.943Z,73.12
2022-08-17T00:28:57.175Z,73.24
2022-08-17T00:29:57.002Z,73.37
2022-08-17T00:30:57.083Z,73.44
2022-08-17T00:31:56.938Z,73.56
2022-08-17T00:33:11.876Z,73.44
2022-08-17T00:33:56.996Z,73.56
2022-08-17T00:34:56.974Z,73.60
2022-08-17T00:35:58.679Z,73.35
2022-08-17T00:36:56.922Z,73.25
2022-08-17T00:37:57.030Z,73.10
2022-08-17T00:38:56.997Z,73.00
2022-08-17T00:41:57.162Z,72.97
2022-08-17T00:42:57.206Z,72.91
2022-08-17T00:44:00.545Z,72.91
2022-08-17T00:44:57.161Z,72.97
2022-08-17T00:45:58.098Z,72.94
2022-08-17T00:46:57.197Z,72.94
2022-08-17T00:47:56.957Z,73.22
2022-08-17T00:48:57.418Z,73.17
2022-08-17T00:49:57.012Z,73.20
2022-08-17T00:51:02.390Z,73.14
2022-08-17T00:52:11.933Z,73.13
2022-08-17T00:52:59.188Z,73.01
2022-08-17T00:54:07.510Z,72.93
2022-08-17T00:54:57.663Z,72.53
2022-08-17T00:57:03.223Z,72.89
2022-08-17T00:58:00.943Z,72.27
2022-08-17T00:58:57.357Z,72.17
2022-08-17T01:00:02.355Z,72.10
2022-08-17T01:00:57.302Z,72.39
2022-08-17T01:01:58.159Z,72.32
2022-08-17T01:03:03.015Z,72.32
2022-08-17T01:03:59.260Z,72.34
2022-08-17T01:04:57.516Z,71.88
2022-08-17T01:06:01.595Z,71.52
2022-08-17T01:06:58.784Z,71.27
2022-08-17T01:07:57.662Z,71.41
2022-08-17T01:08:59.084Z,71.36
2022-08-17T01:09:57.049Z,71.26
2022-08-17T01:11:02.398Z,71.48
2022-08-17T01:12:57.540Z,72.01
2022-08-17T01:13:57.029Z,71.91
2022-08-17T01:14:56.994Z,71.50
2022-08-17T01:15:58.819Z,71.34
2022-08-17T01:16:57.300Z,70.77
2022-08-17T01:17:56.970Z,70.68
2022-08-17T01:20:59.349Z,70.78
2022-08-17T01:22:07.175Z,70.33
2022-08-17T01:22:57.189Z,69.92
2022-08-17T01:23:57.214Z,69.72
2022-08-17T01:25:01.877Z,69.77
2022-08-17T01:25:59.176Z,70.13
2022-08-17T01:27:57.140Z,70.35
2022-08-17T01:28:57.433Z,70.17
2022-08-17T01:30:00.153Z,70.32
2022-08-17T01:30:59.417Z,70.27
2022-08-17T01:32:00.334Z,70.39
2022-08-17T01:32:57.004Z,70.56
2022-08-17T01:33:59.707Z,70.62
2022-08-17T01:34:57.746Z,70.84
2022-08-17T01:35:56.980Z,70.90
2022-08-17T01:36:57.678Z,70.98
2022-08-17T01:37:56.870Z,71.29
2022-08-17T01:38:56.961Z,71.19
2022-08-17T01:40:03.348Z,71.25
2022-08-17T01:41:06.580Z,71.09
2022-08-17T01:42:04.815Z,70.95
2022-08-17T01:43:01.079Z,70.47
2022-08-17T01:44:03.151Z,70.25
2022-08-17T01:45:01.711Z,69.72
2022-08-17T01:46:03.480Z,69.11
2022-08-17T01:46:57.002Z,69.61
2022-08-17T01:47:57.172Z,69.55
2022-08-17T01:48:57.984Z,69.40
2022-08-17T01:49:56.876Z,69.20
2022-08-17T01:50:57.083Z,69.59
2022-08-17T01:51:57.613Z,69.53
2022-08-17T01:53:02.522Z,69.16
2022-08-17T01:54:57.036Z,69.00
2022-08-17T01:56:03.452Z,68.88
2022-08-17T01:56:56.905Z,68.82
2022-08-17T01:57:58.162Z,68.56
2022-08-17T01:58:57.876Z,68.96
2022-08-17T01:59:56.939Z,69.18
2022-08-17T02:01:00.720Z,69.13
2022-08-17T02:01:57.019Z,69.19
2022-08-17T02:02:57.235Z,69.12
2022-08-17T02:04:00.834Z,68.92
2022-08-17T02:04:56.860Z,68.63
2022-08-17T02:05:57.459Z,68.64
2022-08-17T02:06:56.882Z,68.60
2022-08-17T02:08:00.638Z,68.64
2022-08-17T02:10:56.932Z,68.60
2022-08-17T02:11:57.852Z,68.67
2022-08-17T02:12:57.102Z,69.07
2022-08-17T02:14:56.951Z,69.05
2022-08-17T02:15:57.674Z,68.66
2022-08-17T02:16:56.896Z,68.73
2022-08-17T02:17:56.969Z,68.64
2022-08-17T02:18:56.919Z,68.78
2022-08-17T02:19:57.117Z,68.69
2022-08-17T02:20:57.680Z,68.72
2022-08-17T02:21:56.967Z,68.89
2022-08-17T02:22:57.008Z,68.96
2022-08-17T02:23:57.638Z,68.81
2022-08-17T02:24:59.469Z,68.71
2022-08-17T02:25:59.947Z,68.53
2022-08-17T02:26:56.878Z,68.94
2022-08-17T02:27:56.971Z,69.20
2022-08-17T02:29:57.177Z,69.53
2022-08-17T02:31:01.156Z,69.57
2022-08-17T02:31:58.698Z,69.57
2022-08-17T02:32:57.394Z,69.33
2022-08-17T02:34:03.734Z,69.64
2022-08-17T02:34:58.127Z,68.90
2022-08-17T02:35:58.063Z,69.08
2022-08-17T02:37:57.084Z,68.67
2022-08-17T02:39:58.688Z,68.86
2022-08-17T02:40:58.611Z,68.99
2022-08-17T02:42:02.951Z,68.98
2022-08-17T02:42:57.603Z,68.46
2022-08-17T02:43:56.860Z,68.73
2022-08-17T02:44:56.988Z,68.79
2022-08-17T02:45:57.061Z,68.91
2022-08-17T02:46:57.062Z,69.05
2022-08-17T02:47:57.084Z,69.38
2022-08-17T02:48:57.016Z,69.21
2022-08-17T02:50:56.848Z,69.55
2022-08-17T02:51:58.762Z,69.45
2022-08-17T02:54:39.131Z,69.38
2022-08-17T02:54:56.863Z,69.30
2022-08-17T02:55:56.909Z,69.39
2022-08-17T02:56:56.918Z,69.54
2022-08-17T02:57:57.611Z,69.62
2022-08-17T02:58:56.903Z,69.82
2022-08-17T02:59:56.827Z,70.00
2022-08-17T03:00:56.832Z,70.04
2022-08-17T03:01:57.039Z,70.10
2022-08-17T03:02:58.204Z,69.99
2022-08-17T03:03:57.263Z,69.80
2022-08-17T03:04:56.894Z,69.70
2022-08-17T03:05:56.954Z,69.87
2022-08-17T03:06:56.854Z,70.00
2022-08-17T03:07:57.783Z,70.10
2022-08-17T03:08:57.192Z,70.09
2022-08-17T03:09:56.870Z,70.19
2022-08-17T03:10:57.079Z,70.23
2022-08-17T03:12:04.397Z,70.41
2022-08-17T03:12:57.017Z,70.23
2022-08-17T03:13:56.994Z,70.02
2022-08-17T03:14:56.830Z,70.11
2022-08-17T03:15:56.919Z,70.10
2022-08-17T03:17:57.607Z,69.77
2022-08-17T03:18:57.298Z,69.73
2022-08-17T03:19:56.935Z,69.86
2022-08-17T03:20:59.326Z,69.98
2022-08-17T03:21:58.255Z,70.07
2022-08-17T03:23:01.742Z,70.33
2022-08-17T03:24:56.975Z,70.28
2022-08-17T03:25:57.256Z,70.38
2022-08-17T03:27:57.489Z,70.22
2022-08-17T03:28:56.936Z,70.29
2022-08-17T03:29:56.801Z,70.43
2022-08-17T03:30:57.061Z,70.38
2022-08-17T03:31:56.832Z,70.42
2022-08-17T03:35:57.136Z,70.69
2022-08-17T03:36:56.825Z,70.74
2022-08-17T03:38:00.890Z,70.79
2022-08-17T03:38:56.899Z,70.76
2022-08-17T03:39:57.045Z,70.77
2022-08-17T03:40:59.712Z,70.99
2022-08-17T03:42:07.903Z,70.96
2022-08-17T03:42:57.727Z,71.27
2022-08-17T03:43:56.785Z,71.49
2022-08-17T03:44:58.679Z,71.59
2022-08-17T03:46:06.434Z,71.75
2022-08-17T03:48:06.145Z,72.12
2022-08-17T03:49:06.387Z,72.21
2022-08-17T03:50:06.134Z,72.34
2022-08-17T03:51:11.464Z,72.21
2022-08-17T03:52:07.795Z,72.13
2022-08-17T03:53:06.721Z,72.17
2022-08-17T03:54:08.001Z,72.38
2022-08-17T03:55:06.134Z,72.45
2022-08-17T03:57:06.722Z,72.27
2022-08-17T03:57:56.893Z,72.22
2022-08-17T03:58:56.795Z,72.31
2022-08-17T04:00:57.313Z,72.43
2022-08-17T04:02:00.013Z,72.40
2022-08-17T04:02:56.817Z,72.23
2022-08-17T04:05:56.906Z,72.07
2022-08-17T04:07:57.115Z,71.88
2022-08-17T04:08:56.835Z,71.70
2022-08-17T04:09:58.364Z,71.59
2022-08-17T04:11:57.458Z,71.28
2022-08-17T04:14:57.327Z,70.89
2022-08-17T04:16:56.745Z,70.75
2022-08-17T04:19:57.097Z,70.23
2022-08-17T04:20:57.237Z,70.11
2022-08-17T04:22:59.955Z,70.04
2022-08-17T04:24:57.299Z,69.92
2022-08-17T04:25:57.461Z,69.74
2022-08-17T04:26:56.787Z,69.48
2022-08-17T04:27:58.223Z,69.36
2022-08-17T04:28:57.026Z,69.17
2022-08-17T04:29:56.771Z,69.29
2022-08-17T04:30:56.905Z,68.91
2022-08-17T04:31:56.804Z,68.77
2022-08-17T04:33:10.963Z,68.69
2022-08-17T04:33:57.041Z,68.54
2022-08-17T04:34:56.749Z,68.38
2022-08-17T04:36:00.032Z,68.39
2022-08-17T04:36:56.759Z,68.39
2022-08-17T04:37:57.488Z,68.43
2022-08-17T04:38:58.292Z,68.19
2022-08-17T04:40:06.113Z,67.98
2022-08-17T04:41:07.287Z,67.58
2022-08-17T04:43:03.171Z,67.76
2022-08-17T04:43:58.683Z,67.72
2022-08-17T04:44:56.766Z,67.73
2022-08-17T04:45:59.345Z,67.96
2022-08-17T04:46:56.837Z,67.82
2022-08-17T04:47:56.810Z,67.87
2022-08-17T04:48:58.515Z,67.99
2022-08-17T04:49:56.828Z,68.03
2022-08-17T04:52:57.171Z,67.98
2022-08-17T04:54:00.451Z,67.96
2022-08-17T04:54:57.026Z,67.93
2022-08-17T04:55:59.233Z,67.80
2022-08-17T04:56:56.792Z,67.78
2022-08-17T04:57:57.021Z,67.91
2022-08-17T04:58:59.259Z,68.10
2022-08-17T04:59:56.822Z,68.24
2022-08-17T05:00:56.913Z,68.33
2022-08-17T05:01:56.801Z,68.44
2022-08-17T05:02:57.547Z,68.35
2022-08-17T05:03:59.696Z,68.39
2022-08-17T05:05:56.802Z,68.42
2022-08-17T05:06:56.765Z,68.40
2022-08-17T05:07:59.163Z,68.32
2022-08-17T05:08:58.072Z,68.36
2022-08-17T05:09:56.749Z,68.37
2022-08-17T05:10:56.776Z,68.44
2022-08-17T05:11:56.775Z,68.55
2022-08-17T05:13:01.629Z,68.63
2022-08-17T05:13:58.661Z,68.87
2022-08-17T05:14:56.789Z,69.00
2022-08-17T05:16:56.850Z,69.15
2022-08-17T05:17:57.029Z,69.22
2022-08-17T05:18:58.773Z,69.22
2022-08-17T05:19:56.732Z,69.23
2022-08-17T05:20:57.044Z,69.20
2022-08-17T05:21:56.740Z,69.22
2022-08-17T05:22:59.886Z,69.19
2022-08-17T05:23:58.711Z,69.25
2022-08-17T05:24:56.795Z,69.35
2022-08-17T05:25:58.429Z,69.37
2022-08-17T05:26:56.743Z,69.44
2022-08-17T05:27:57.880Z,69.55
2022-08-17T05:29:00.558Z,69.58
2022-08-17T05:29:56.785Z,69.67
2022-08-17T05:30:58.375Z,69.77
2022-08-17T05:31:56.974Z,69.90
2022-08-17T05:33:00.457Z,70.06
2022-08-17T05:33:57.071Z,70.15
2022-08-17T05:35:00.722Z,70.30
2022-08-17T05:35:58.728Z,70.46
2022-08-17T05:36:56.755Z,70.67
2022-08-17T05:37:57.287Z,70.83
2022-08-17T05:38:56.811Z,71.02
2022-08-17T05:39:56.828Z,71.26
2022-08-17T05:40:58.685Z,71.49
2022-08-17T05:41:56.753Z,71.71
2022-08-17T05:43:06.743Z,71.88
2022-08-17T05:43:56.839Z,72.01
2022-08-17T05:44:59.008Z,72.12
2022-08-17T05:46:03.802Z,72.26
2022-08-17T05:47:00.109Z,72.41
2022-08-17T05:47:56.793Z,72.52
2022-08-17T05:49:03.755Z,72.68
2022-08-17T05:49:57.198Z,72.86
2022-08-17T05:51:01.315Z,72.95
2022-08-17T05:52:14.013Z,73.03
2022-08-17T05:53:06.574Z,73.11
2022-08-17T05:54:02.052Z,73.16
2022-08-17T05:55:04.301Z,73.23
2022-08-17T05:56:11.615Z,73.36
2022-08-17T05:57:05.535Z,73.46
2022-08-17T05:58:10.720Z,73.63
2022-08-17T05:59:02.125Z,73.77
2022-08-17T06:00:11.036Z,73.90
2022-08-17T06:01:10.824Z,73.98
2022-08-17T06:02:08.820Z,74.12
2022-08-17T06:03:14.673Z,74.26
2022-08-17T06:04:02.015Z,74.37
2022-08-17T06:05:14.691Z,74.46
2022-08-17T06:06:01.943Z,74.58
2022-08-17T06:07:07.461Z,74.71
2022-08-17T06:08:03.268Z,74.84
2022-08-17T06:09:01.610Z,74.93
2022-08-17T06:10:08.899Z,75.00
2022-08-17T06:11:00.984Z,75.07
2022-08-17T06:12:08.922Z,75.21
2022-08-17T06:13:13.836Z,75.24
2022-08-17T06:14:11.406Z,75.28
2022-08-17T06:15:12.897Z,75.42
2022-08-17T06:16:34.183Z,75.58
2022-08-17T06:17:03.059Z,75.72
2022-08-17T06:18:08.415Z,75.86
2022-08-17T06:19:01.597Z,76.00
2022-08-17T06:20:00.417Z,76.13
2022-08-17T06:21:02.535Z,76.28
2022-08-17T06:21:58.693Z,76.39
2022-08-17T06:23:05.500Z,76.51
2022-08-17T06:24:07.337Z,76.63
2022-08-17T06:25:02.500Z,76.76
2022-08-17T06:26:04.784Z,76.88
2022-08-17T06:27:07.558Z,76.96
2022-08-17T06:28:02.694Z,77.04
2022-08-17T06:29:02.982Z,77.12
2022-08-17T06:31:01.400Z,77.23
2022-08-17T06:32:59.990Z,77.27
2022-08-17T06:33:58.531Z,77.27
2022-08-17T06:34:58.040Z,77.28
2022-08-17T06:36:02.820Z,77.27
2022-08-17T06:37:09.525Z,77.34
2022-08-17T06:38:09.372Z,77.44
2022-08-17T06:39:05.133Z,77.59
2022-08-17T06:40:11.246Z,77.72
2022-08-17T06:41:02.436Z,77.87
2022-08-17T06:42:06.600Z,77.90
2022-08-17T06:43:12.761Z,77.83
2022-08-17T06:44:08.443Z,77.73
2022-08-17T06:45:08.323Z,77.70
2022-08-17T06:46:11.848Z,77.65
2022-08-17T06:47:04.021Z,77.70
2022-08-17T06:48:00.940Z,77.73
2022-08-17T06:49:08.076Z,77.78
2022-08-17T06:50:01.269Z,77.85
2022-08-17T06:51:04.296Z,78.01
2022-08-17T06:52:03.044Z,78.21
2022-08-17T06:53:04.121Z,78.37
2022-08-17T06:54:05.871Z,78.47
2022-08-17T06:55:00.463Z,78.59
2022-08-17T06:56:05.057Z,78.66
2022-08-17T06:57:10.602Z,78.71
2022-08-17T06:58:15.822Z,78.77
2022-08-17T06:58:59.322Z,78.84
2022-08-17T07:00:07.764Z,78.91
2022-08-17T07:00:59.810Z,78.99
2022-08-17T07:01:57.145Z,79.06
2022-08-17T07:06:03.885Z,79.34
2022-08-17T07:07:11.934Z,79.38
2022-08-17T07:08:03.588Z,79.38
2022-08-17T07:09:01.876Z,79.44
2022-08-17T07:10:00.785Z,79.53
2022-08-17T07:13:09.467Z,79.79
2022-08-17T07:15:11.390Z,79.85
2022-08-17T07:16:06.836Z,79.87
2022-08-17T07:16:59.554Z,79.83
2022-08-17T07:18:59.518Z,79.60
2022-08-17T07:20:06.403Z,79.54
2022-08-17T07:21:08.534Z,79.54
2022-08-17T07:22:14.156Z,79.55
2022-08-17T07:23:04.764Z,79.53
2022-08-17T07:24:26.219Z,79.56
2022-08-17T07:24:59.793Z,79.65
2022-08-17T07:26:07.016Z,79.66
2022-08-17T07:27:09.519Z,79.58
2022-08-17T07:28:00.910Z,79.54
2022-08-17T07:28:57.173Z,79.61
2022-08-17T07:30:08.143Z,79.62
2022-08-17T07:30:56.718Z,79.66
2022-08-17T07:31:57.574Z,79.76
2022-08-17T07:33:01.786Z,79.83
2022-08-17T07:34:14.569Z,79.86
2022-08-17T07:35:10.737Z,79.84
2022-08-17T07:35:59.470Z,79.82
2022-08-17T07:37:05.353Z,79.78
2022-08-17T07:38:05.293Z,79.84
2022-08-17T07:38:58.508Z,79.95
2022-08-17T07:40:15.235Z,80.08
2022-08-17T07:42:03.738Z,80.33
2022-08-17T07:43:57.757Z,80.28
2022-08-17T07:44:58.129Z,80.16
2022-08-17T07:46:22.653Z,80.05
2022-08-17T07:47:06.774Z,80.05
2022-08-17T07:48:06.078Z,80.11
2022-08-17T07:49:07.718Z,80.26
2022-08-17T07:49:56.745Z,80.37
2022-08-17T07:51:00.345Z,80.48
2022-08-17T07:52:47.318Z,80.64
2022-08-17T07:52:56.785Z,80.72
2022-08-17T07:54:14.085Z,80.84
2022-08-17T07:54:56.919Z,80.88
2022-08-17T07:55:56.725Z,80.89
2022-08-17T07:57:00.160Z,80.91
2022-08-17T07:57:59.046Z,81.04
2022-08-17T07:59:14.602Z,81.17
2022-08-17T08:01:05.266Z,81.28
2022-08-17T08:02:14.997Z,81.29
2022-08-17T08:03:58.303Z,81.25
2022-08-17T08:05:06.652Z,81.23
2022-08-17T08:06:02.118Z,81.23
2022-08-17T08:07:01.528Z,81.20
2022-08-17T08:08:00.243Z,81.18
2022-08-17T08:09:00.676Z,81.09
2022-08-17T08:10:06.353Z,81.01
2022-08-17T08:11:08.231Z,81.01
2022-08-17T08:11:56.820Z,81.01
2022-08-17T08:13:05.950Z,80.94
2022-08-17T08:13:58.617Z,80.93
2022-08-17T08:15:00.807Z,81.01
2022-08-17T08:16:07.201Z,81.09
2022-08-17T08:16:59.335Z,81.15
2022-08-17T08:17:59.765Z,81.22
2022-08-17T08:18:59.765Z,81.38
2022-08-17T08:21:02.838Z,81.56
2022-08-17T08:22:11.713Z,81.64
2022-08-17T08:23:11.563Z,81.64
2022-08-17T08:24:09.865Z,81.49
2022-08-17T08:25:07.482Z,81.22
2022-08-17T08:26:01.276Z,81.26
2022-08-17T08:27:12.940Z,81.37
2022-08-17T08:28:05.335Z,81.46
2022-08-17T08:29:01.534Z,81.53
2022-08-17T08:30:05.157Z,81.60
2022-08-17T08:31:14.613Z,81.69
2022-08-17T08:34:58.959Z,81.82
2022-08-17T08:35:06.867Z,81.77
2022-08-17T08:38:10.805Z,81.50
2022-08-17T08:40:02.031Z,81.53
2022-08-17T08:42:09.794Z,81.65
2022-08-17T08:43:12.760Z,81.70
2022-08-17T08:44:08.803Z,81.73
2022-08-17T08:45:04.396Z,81.77
2022-08-17T08:46:05.662Z,81.78
2022-08-17T08:47:00.483Z,81.72
2022-08-17T08:48:52.910Z,81.63
2022-08-17T08:49:12.172Z,81.64
2022-08-17T08:50:37.666Z,81.61
2022-08-17T08:51:00.559Z,81.59
2022-08-17T08:51:58.990Z,81.58
2022-08-17T08:53:12.965Z,81.61
2022-08-17T08:54:05.448Z,81.71
2022-08-17T08:55:09.211Z,81.88
2022-08-17T08:56:03.627Z,82.00
2022-08-17T08:57:24.289Z,82.10
2022-08-17T08:58:06.624Z,82.18
2022-08-17T08:59:07.401Z,82.28
2022-08-17T09:00:14.851Z,82.39
2022-08-17T09:00:59.265Z,82.49
2022-08-17T09:02:04.129Z,82.59
2022-08-17T09:03:14.620Z,82.66
2022-08-17T09:04:21.761Z,82.74
2022-08-17T09:05:14.680Z,82.80
2022-08-17T09:06:37.785Z,82.83
2022-08-17T09:07:03.201Z,82.85
2022-08-17T09:08:04.653Z,82.86
2022-08-17T09:10:09.225Z,82.88
2022-08-17T09:12:03.917Z,82.96
2022-08-17T09:14:07.507Z,83.05
2022-08-17T09:15:10.863Z,83.13
2022-08-17T09:16:07.808Z,83.19
2022-08-17T09:17:06.499Z,83.23
2022-08-17T09:18:59.112Z,83.28
2022-08-17T09:19:08.713Z,83.32
2022-08-17T09:20:04.857Z,83.34
2022-08-17T09:21:01.898Z,83.34
2022-08-17T09:22:02.723Z,83.36
2022-08-17T09:23:04.101Z,83.38
2022-08-17T09:24:07.125Z,83.39
2022-08-17T09:25:01.081Z,83.39
2022-08-17T09:29:04.054Z,83.45
2022-08-17T09:30:05.011Z,83.45
2022-08-17T09:31:03.531Z,83.48
2022-08-17T09:31:59.784Z,83.48
2022-08-17T09:33:59.792Z,83.49
2022-08-17T09:35:10.659Z,83.50
2022-08-17T09:38:11.185Z,83.52
2022-08-17T09:40:08.597Z,83.54
2022-08-17T09:41:08.079Z,83.58
2022-08-17T09:46:01.965Z,83.67
2022-08-17T09:48:00.039Z,83.68
2022-08-17T09:49:07.346Z,83.68
2022-08-17T09:54:14.737Z,83.64
2022-08-17T09:55:00.194Z,83.65
2022-08-17T09:56:13.645Z,83.62
2022-08-17T09:57:29.195Z,83.58
2022-08-17T09:58:05.356Z,83.54
2022-08-17T09:59:17.099Z,83.50
2022-08-17T10:00:17.402Z,83.43
2022-08-17T10:01:03.690Z,83.36
2022-08-17T10:02:11.663Z,83.31
2022-08-17T10:03:16.279Z,83.22
2022-08-17T10:04:11.514Z,83.18
2022-08-17T10:05:12.158Z,83.24
2022-08-17T10:06:00.182Z,83.29
2022-08-17T10:07:05.773Z,83.32
2022-08-17T10:08:09.473Z,83.32
2022-08-17T10:09:07.560Z,83.30
2022-08-17T10:09:59.653Z,83.31
2022-08-17T10:11:06.678Z,83.38
2022-08-17T10:12:17.743Z,83.40
2022-08-17T10:13:00.914Z,83.45
2022-08-17T10:14:03.419Z,83.43
2022-08-17T10:15:07.976Z,83.37
2022-08-17T10:16:08.280Z,83.30
2022-08-17T10:17:11.378Z,83.31
2022-08-17T10:18:14.549Z,83.29
2022-08-17T10:19:14.011Z,83.26
2022-08-17T10:21:18.647Z,83.19
2022-08-17T10:22:32.625Z,83.11
2022-08-17T10:23:16.671Z,83.05
2022-08-17T10:24:11.087Z,82.90
2022-08-17T10:25:22.449Z,82.91
2022-08-17T10:26:15.499Z,82.96
2022-08-17T10:27:00.896Z,82.99
2022-08-17T10:28:01.907Z,83.05
2022-08-17T10:29:03.050Z,83.11
2022-08-17T10:30:01.691Z,83.16
2022-08-17T10:31:30.996Z,83.17
2022-08-17T10:32:03.681Z,83.15
2022-08-17T10:33:01.648Z,83.13
2022-08-17T10:34:13.094Z,83.10
2022-08-17T10:35:04.235Z,83.06
2022-08-17T10:36:11.338Z,83.07
2022-08-17T10:37:11.815Z,83.06
2022-08-17T10:38:15.510Z,83.16
2022-08-17T10:39:10.470Z,83.22
2022-08-17T10:40:12.352Z,83.35
2022-08-17T10:41:07.822Z,83.41
2022-08-17T10:42:00.859Z,83.47
2022-08-17T10:43:02.856Z,83.56
2022-08-17T10:44:39.280Z,83.64
2022-08-17T10:48:06.358Z,83.54
2022-08-17T10:49:14.474Z,83.50
2022-08-17T10:49:57.762Z,83.55
2022-08-17T10:51:07.800Z,83.57
2022-08-17T10:51:59.057Z,83.58
2022-08-17T10:52:56.541Z,83.62
2022-08-17T10:53:59.063Z,83.69
2022-08-17T10:56:58.982Z,83.98
2022-08-17T10:58:14.744Z,83.83
2022-08-17T11:02:05.256Z,83.96
2022-08-17T11:04:01.399Z,83.85
2022-08-17T11:06:12.809Z,83.72
2022-08-17T11:07:12.008Z,83.70
2022-08-17T11:08:14.365Z,83.62
2022-08-17T11:09:05.207Z,83.57
2022-08-17T11:10:13.688Z,83.64
2022-08-17T11:11:06.961Z,83.67
2022-08-17T11:12:06.945Z,83.64
2022-08-17T11:13:09.407Z,83.67
2022-08-17T11:14:06.335Z,83.63
2022-08-17T11:15:12.414Z,83.60
2022-08-17T11:16:09.666Z,83.63
2022-08-17T11:17:14.764Z,83.66
2022-08-17T11:18:05.438Z,83.58
2022-08-17T11:19:14.570Z,83.61
2022-08-17T11:20:09.151Z,83.63
2022-08-17T11:21:05.109Z,83.73
2022-08-17T11:22:09.143Z,83.80
2022-08-17T11:23:14.854Z,83.83
2022-08-17T11:24:13.152Z,83.87
2022-08-17T11:25:07.759Z,83.94
2022-08-17T11:26:04.084Z,83.96
2022-08-17T11:28:07.193Z,83.98
2022-08-17T11:30:02.765Z,83.88
2022-08-17T11:36:12.677Z,83.76
2022-08-17T11:38:03.184Z,83.76
2022-08-17T11:40:13.705Z,83.76
2022-08-17T11:42:06.072Z,83.74
2022-08-17T11:43:07.681Z,83.78
2022-08-17T11:44:12.565Z,83.82
2022-08-17T11:44:58.391Z,83.82
2022-08-17T11:46:12.134Z,83.81
2022-08-17T11:47:23.516Z,83.75
2022-08-17T11:50:27.112Z,83.74
2022-08-17T11:51:18.635Z,83.80
2022-08-17T11:52:05.374Z,83.79
2022-08-17T11:52:56.720Z,83.83
2022-08-17T11:54:30.570Z,83.82
2022-08-17T11:56:06.278Z,83.79
2022-08-17T11:56:58.410Z,83.81
2022-08-17T12:00:58.531Z,83.89
2022-08-17T12:03:14.467Z,83.89
2022-08-17T12:04:07.109Z,83.86
2022-08-17T12:06:04.101Z,83.79
2022-08-17T12:07:09.323Z,83.79
2022-08-17T12:08:07.213Z,83.87
2022-08-17T12:09:02.932Z,83.96
2022-08-17T12:09:57.546Z,84.02
2022-08-17T12:12:57.153Z,84.21
2022-08-17T12:13:59.536Z,84.25
2022-08-17T12:15:10.122Z,84.27
2022-08-17T12:15:58.123Z,84.19
2022-08-17T12:18:59.722Z,84.09
2022-08-17T12:21:15.567Z,84.10
2022-08-17T12:22:04.318Z,84.11
2022-08-17T12:26:01.819Z,84.06
2022-08-17T12:26:59.585Z,84.07
2022-08-17T12:28:06.895Z,84.10
2022-08-17T12:29:01.129Z,84.12
2022-08-17T12:29:56.787Z,84.11
2022-08-17T12:31:12.482Z,84.11
2022-08-17T12:31:56.640Z,84.12
2022-08-17T12:32:57.289Z,84.15
2022-08-17T12:34:57.268Z,84.27
2022-08-17T12:36:00.780Z,84.31
2022-08-17T12:37:02.117Z,84.35
2022-08-17T12:39:12.926Z,84.41
2022-08-17T12:40:01.561Z,84.39
2022-08-17T12:42:02.357Z,84.39
2022-08-17T12:43:01.208Z,84.37
2022-08-17T12:44:56.905Z,84.23
2022-08-17T12:45:59.622Z,84.18
2022-08-17T12:48:07.958Z,84.07
2022-08-17T12:49:14.384Z,84.03
2022-08-17T12:51:02.560Z,83.96
2022-08-17T12:53:01.788Z,83.94
2022-08-17T12:54:59.813Z,83.95
2022-08-17T12:56:57.660Z,83.89
2022-08-17T12:58:56.852Z,83.88
2022-08-17T13:00:02.265Z,83.94
2022-08-17T13:01:02.681Z,84.02
2022-08-17T13:01:56.886Z,84.09
2022-08-17T13:03:00.621Z,84.14
2022-08-17T13:04:00.314Z,84.19
2022-08-17T13:04:59.229Z,84.23
2022-08-17T13:07:59.012Z,84.29
2022-08-17T13:12:00.466Z,84.40
2022-08-17T13:12:57.090Z,84.44
2022-08-17T13:14:57.708Z,84.55
2022-08-17T13:16:00.117Z,84.62
2022-08-17T13:17:00.023Z,84.70
2022-08-17T13:18:08.099Z,84.75
2022-08-17T13:19:06.060Z,84.79
2022-08-17T13:19:56.622Z,84.80
2022-08-17T13:20:59.884Z,84.81
2022-08-17T13:22:00.109Z,84.80
2022-08-17T13:24:01.570Z,84.80
2022-08-17T13:25:58.452Z,84.81
2022-08-17T13:31:14.396Z,84.83
2022-08-17T13:35:12.900Z,84.83
2022-08-17T13:38:01.617Z,84.99
2022-08-17T13:39:14.418Z,85.07
2022-08-17T13:40:00.080Z,85.10
2022-08-17T13:40:56.401Z,85.12
2022-08-17T13:41:56.437Z,85.07
2022-08-17T13:42:57.988Z,85.04
2022-08-17T13:43:56.444Z,85.02
2022-08-17T13:44:56.490Z,85.01
2022-08-17T13:46:10.117Z,85.02
2022-08-17T13:46:57.308Z,85.06
2022-08-17T13:49:05.775Z,85.10
2022-08-17T13:54:01.549Z,85.08
2022-08-17T14:05:56.539Z,84.97
2022-08-17T14:06:59.003Z,85.00
2022-08-17T14:07:59.003Z,85.01
2022-08-17T14:08:57.228Z,85.03
2022-08-17T14:10:59.542Z,85.06
2022-08-17T14:12:56.911Z,85.16
2022-08-17T14:13:56.345Z,85.17
2022-08-17T14:14:57.149Z,85.19
2022-08-17T14:15:56.890Z,85.25
2022-08-17T14:16:57.675Z,85.29
2022-08-17T14:17:56.704Z,85.32
2022-08-17T14:18:57.535Z,85.36
2022-08-17T14:19:56.599Z,85.36
2022-08-17T14:21:59.047Z,85.35
2022-08-17T14:24:56.576Z,85.33
2022-08-17T14:29:58.193Z,85.32
2022-08-17T14:30:56.439Z,85.32
2022-08-17T14:32:56.701Z,85.27
2022-08-17T14:33:56.426Z,85.20
2022-08-17T14:34:57.861Z,85.07
2022-08-17T14:35:57.755Z,85.08
2022-08-17T14:36:57.153Z,85.16
2022-08-17T14:37:57.486Z,85.27
2022-08-17T14:38:56.568Z,85.36
2022-08-17T14:40:56.812Z,85.44
2022-08-17T14:42:58.067Z,85.50
2022-08-17T14:43:56.357Z,85.53
2022-08-17T14:44:58.794Z,85.54
2022-08-17T14:45:56.348Z,85.55
2022-08-17T14:46:56.633Z,85.53
2022-08-17T14:47:56.369Z,85.52
2022-08-17T14:48:57.497Z,85.49
2022-08-17T14:49:56.326Z,85.46
2022-08-17T14:54:57.203Z,85.30
2022-08-17T14:57:04.663Z,85.22
2022-08-17T14:57:56.345Z,85.22
2022-08-17T14:58:56.575Z,85.21
2022-08-17T15:05:02.051Z,85.24
2022-08-17T15:07:56.332Z,85.28
2022-08-17T15:08:56.348Z,85.29
2022-08-17T15:09:56.853Z,85.30
2022-08-17T15:10:56.345Z,85.30
2022-08-17T15:11:56.848Z,85.32
2022-08-17T15:13:56.314Z,85.32
2022-08-17T15:15:56.952Z,85.24
2022-08-17T15:16:56.521Z,85.24
2022-08-17T15:17:56.894Z,85.26
2022-08-17T15:18:56.287Z,85.31
2022-08-17T15:21:56.356Z,85.53
2022-08-17T15:23:56.367Z,85.54
2022-08-17T15:25:56.420Z,85.61
2022-08-17T15:26:56.462Z,85.62
2022-08-17T15:27:56.396Z,85.63
2022-08-17T15:28:57.446Z,85.64
2022-08-17T15:29:56.607Z,85.63
2022-08-17T15:32:00.458Z,85.55
2022-08-17T15:32:59.499Z,85.52
2022-08-17T15:36:56.393Z,85.46
2022-08-17T15:46:01.916Z,85.47
2022-08-17T15:46:56.308Z,85.47
2022-08-17T15:48:59.056Z,85.50
2022-08-17T15:50:00.018Z,85.51
2022-08-17T15:52:59.233Z,85.57
2022-08-17T15:53:59.770Z,85.60
2022-08-17T15:54:59.896Z,85.61
2022-08-17T15:55:56.269Z,85.63
2022-08-17T15:56:56.349Z,85.66
2022-08-17T15:57:56.306Z,85.68
2022-08-17T15:58:56.494Z,85.68
2022-08-17T15:59:58.524Z,85.70
2022-08-17T16:01:14.853Z,85.71
2022-08-17T16:03:13.702Z,85.70
2022-08-17T16:03:44.641Z,85.71
2022-08-17T16:04:04.318Z,85.72
2022-08-17T16:05:56.521Z,85.71
2022-08-17T16:09:56.679Z,85.62
2022-08-17T16:11:56.658Z,85.64
2022-08-17T16:16:56.310Z,85.69
2022-08-17T16:18:58.726Z,85.68
2022-08-17T16:21:56.363Z,85.66
2022-08-17T16:22:56.302Z,85.67
2022-08-17T16:24:01.502Z,85.69
2022-08-17T16:24:57.422Z,85.73
2022-08-17T16:25:56.267Z,85.73
2022-08-17T16:26:56.971Z,85.75
2022-08-17T16:27:56.393Z,85.77
2022-08-17T16:28:57.232Z,85.78
2022-08-17T16:29:56.397Z,85.81
2022-08-17T16:30:56.321Z,85.85
2022-08-17T16:32:57.972Z,85.95